createdAt,value
2019-02-26T00:03:31.441Z,101558.93
2019-02-26T00:08:37.034Z,101565.58
2019-02-26T00:13:43.198Z,101558.03
2019-02-26T00:18:48.482Z,101558.45
2019-02-26T00:23:53.725Z,101557.12
2019-02-26T00:28:59.792Z,101545.14
2019-02-26T00:34:08.161Z,101539.84
2019-02-26T00:39:12.901Z,101533.59
2019-02-26T00:44:18.616Z,101535.73
2019-02-26T00:49:25.867Z,101539.63
2019-02-26T00:54:33.858Z,101550.14
2019-02-26T00:59:41.249Z,101544.29
2019-02-26T01:04:46.732Z,101539.84
2019-02-26T01:09:54.660Z,101533.66
2019-02-26T01:15:02.574Z,101533.97
2019-02-26T01:20:09.906Z,101542.29
2019-02-26T01:25:17.742Z,101539.32
2019-02-26T01:30:25.854Z,101537.80
2019-02-26T01:35:30.747Z,101527.78
2019-02-26T01:40:39.405Z,101532.70
2019-02-26T01:45:44.017Z,101525.66
2019-02-26T01:50:52.042Z,101527.80
2019-02-26T01:55:57.006Z,101531.34
2019-02-26T02:01:02.256Z,101538.87
2019-02-26T02:06:10.611Z,101545.93
2019-02-26T02:11:14.466Z,101544.60
2019-02-26T02:16:19.736Z,101541.99
2019-02-26T02:21:25.982Z,101529.95
2019-02-26T02:26:32.140Z,101528.52
2019-02-26T02:31:38.340Z,101528.51
2019-02-26T02:36:44.305Z,101522.80
2019-02-26T02:41:51.747Z,101520.56
2019-02-26T02:46:58.371Z,101517.75
2019-02-26T02:52:04.164Z,101517.34
2019-02-26T02:57:10.394Z,101506.75
2019-02-26T03:02:17.652Z,101500.59
2019-02-26T03:07:23.554Z,101489.98
2019-02-26T03:12:29.553Z,101497.81
2019-02-26T03:17:34.858Z,101489.34
2019-02-26T03:22:43.194Z,101480.09
2019-02-26T03:27:47.063Z,101473.05
2019-02-26T03:32:58.555Z,101470.80
2019-02-26T03:38:01.322Z,101472.98
2019-02-26T03:43:07.634Z,101464.63
2019-02-26T03:48:12.922Z,101464.41
2019-02-26T03:53:18.191Z,101454.41
2019-02-26T03:58:23.376Z,101451.79
2019-02-26T04:03:29.676Z,101446.47
2019-02-26T04:08:35.541Z,101436.77
2019-02-26T04:13:42.914Z,101420.44
2019-02-26T04:18:51.068Z,101423.08
2019-02-26T04:23:54.833Z,101417.77
2019-02-26T04:29:22.182Z,101411.57
2019-02-26T04:34:38.161Z,101410.70
2019-02-26T04:39:49.581Z,101416.45
2019-02-26T04:45:14.558Z,101414.67
2019-02-26T04:50:23.076Z,101406.30
2019-02-26T04:55:29.139Z,101401.00
2019-02-26T05:00:37.978Z,101397.94
2019-02-26T05:05:40.812Z,101393.91
2019-02-26T05:10:46.981Z,101392.09
2019-02-26T05:15:53.063Z,101386.75
2019-02-26T05:20:59.308Z,101377.45
2019-02-26T05:26:08.098Z,101373.02
2019-02-26T05:31:14.473Z,101363.28
2019-02-26T05:36:19.281Z,101355.33
2019-02-26T05:41:24.562Z,101356.64
2019-02-26T05:46:30.001Z,101352.17
2019-02-26T05:51:36.060Z,101343.75
2019-02-26T05:56:43.490Z,101340.19
2019-02-26T06:01:52.553Z,101335.36
2019-02-26T06:06:57.212Z,101323.82
2019-02-26T06:12:03.085Z,101325.15
2019-02-26T06:17:10.519Z,101312.90
2019-02-26T06:22:18.171Z,101318.66
2019-02-26T06:27:24.776Z,101316.01
2019-02-26T06:32:31.975Z,101316.92
2019-02-26T06:37:37.880Z,101318.67
2019-02-26T06:42:43.092Z,101320.89
2019-02-26T06:47:50.735Z,101318.70
2019-02-26T06:52:55.297Z,101322.67
2019-02-26T06:58:18.185Z,101319.62
2019-02-26T07:03:24.806Z,101323.61
2019-02-26T07:08:30.988Z,101330.24
2019-02-26T07:13:38.578Z,101335.56
2019-02-26T07:18:43.280Z,101336.87
2019-02-26T07:23:48.535Z,101338.19
2019-02-26T07:28:53.894Z,101339.52
2019-02-26T07:34:01.355Z,101348.84
2019-02-26T07:39:10.278Z,101351.48
2019-02-26T07:44:18.119Z,101354.43
2019-02-26T07:49:22.187Z,101349.97
2019-02-26T07:54:28.856Z,101350.11
2019-02-26T07:59:34.873Z,101356.66
2019-02-26T08:04:43.512Z,101357.48
2019-02-26T08:09:51.382Z,101349.18
2019-02-26T08:14:56.602Z,101347.95
2019-02-26T08:20:04.274Z,101349.64
2019-02-26T08:25:10.005Z,101342.07
2019-02-26T08:30:20.638Z,101334.85
2019-02-26T08:35:24.142Z,101335.64
2019-02-26T08:40:29.590Z,101334.00
2019-02-26T08:45:35.006Z,101336.55
2019-02-26T08:50:42.134Z,101340.91
2019-02-26T08:55:47.283Z,101340.77
2019-02-26T09:00:52.627Z,101341.85
2019-02-26T09:06:10.181Z,101332.56
2019-02-26T09:11:06.311Z,101339.31
2019-02-26T09:16:11.720Z,101338.77
2019-02-26T09:21:18.125Z,101336.53
2019-02-26T09:26:24.888Z,101348.58
2019-02-26T09:31:30.237Z,101337.48
2019-02-26T09:36:35.486Z,101338.25
2019-02-26T09:41:42.608Z,101345.53
2019-02-26T09:46:50.742Z,101347.45
2019-02-26T09:51:56.821Z,101346.73
2019-02-26T09:57:02.974Z,101342.90
2019-02-26T10:02:08.270Z,101325.16
2019-02-26T10:07:14.398Z,101336.47
2019-02-26T10:12:21.102Z,101337.59
2019-02-26T10:17:26.390Z,101340.38
2019-02-26T10:22:33.202Z,101325.95
2019-02-26T10:27:40.586Z,101321.26
2019-02-26T10:32:46.871Z,101317.57
2019-02-26T10:37:54.013Z,101310.34
2019-02-26T10:43:01.512Z,101298.30
2019-02-26T10:48:06.666Z,101298.08
2019-02-26T10:53:14.186Z,101301.50
2019-02-26T10:58:19.121Z,101291.80
2019-02-26T11:03:24.361Z,101295.47
2019-02-26T11:08:32.228Z,101290.02
2019-02-26T11:13:37.300Z,101292.13
2019-02-26T11:18:44.955Z,101290.61
2019-02-26T11:23:51.636Z,101263.94
2019-02-26T11:28:57.031Z,101294.41
2019-02-26T11:34:04.013Z,101274.48
2019-02-26T11:39:12.705Z,101282.11
2019-02-26T11:44:20.569Z,101274.84
2019-02-26T11:49:25.073Z,101279.76
2019-02-26T11:54:32.666Z,101272.79
2019-02-26T11:59:38.600Z,101271.45
2019-02-26T12:04:44.821Z,101282.75
2019-02-26T12:09:50.131Z,101274.34
2019-02-26T12:14:55.531Z,101279.77
2019-02-26T12:20:00.950Z,101261.31
2019-02-26T12:25:08.924Z,101262.83
2019-02-26T12:30:18.126Z,101245.67
2019-02-26T12:35:23.580Z,101245.56
2019-02-26T12:40:28.881Z,101238.05
2019-02-26T12:45:37.712Z,101236.82
2019-02-26T12:50:41.200Z,101221.63
2019-02-26T12:55:46.694Z,101244.98
2019-02-26T13:00:52.122Z,101220.14
2019-02-26T13:05:57.529Z,101201.94
2019-02-26T13:11:02.851Z,101217.50
2019-02-26T13:16:08.115Z,101209.64
2019-02-26T13:21:16.418Z,101183.13
2019-02-26T13:26:22.554Z,101187.54
2019-02-26T13:31:27.276Z,101188.66
2019-02-26T13:36:36.418Z,101164.44
2019-02-26T13:41:39.878Z,101170.48
2019-02-26T13:46:45.091Z,101165.99
2019-02-26T13:51:52.205Z,101149.22
2019-02-26T13:56:57.416Z,101148.70
2019-02-26T14:02:02.823Z,101146.77
2019-02-26T14:07:08.089Z,101128.83
2019-02-26T14:12:14.261Z,101124.80
2019-02-26T14:17:19.601Z,101121.33
2019-02-26T14:22:25.114Z,101112.86
2019-02-26T14:27:30.698Z,101113.67
2019-02-26T14:32:36.146Z,101112.27
2019-02-26T14:37:41.485Z,101106.45
2019-02-26T14:42:46.701Z,101094.87
2019-02-26T14:47:52.421Z,101101.87
2019-02-26T14:52:57.755Z,101100.06
2019-02-26T14:58:03.011Z,101092.75
2019-02-26T15:03:08.517Z,101117.89
2019-02-26T15:08:13.858Z,101101.14
2019-02-26T15:13:19.326Z,101110.03
2019-02-26T15:18:26.906Z,101106.34
2019-02-26T15:23:32.256Z,101097.16
2019-02-26T15:28:37.515Z,101095.39
2019-02-26T15:33:42.857Z,101103.47
2019-02-26T15:38:48.498Z,101087.77
2019-02-26T15:43:54.509Z,101098.61
2019-02-26T15:49:00.685Z,101079.92
2019-02-26T15:54:05.991Z,101086.20
2019-02-26T15:59:11.538Z,101088.14
2019-02-26T16:04:16.934Z,101086.91
2019-02-26T16:09:22.326Z,101081.23
2019-02-26T16:14:27.757Z,101086.41
2019-02-26T16:19:33.126Z,101064.86
2019-02-26T16:24:38.634Z,101064.86
2019-02-26T16:29:43.923Z,101085.48
2019-02-26T16:34:52.308Z,101092.16
2019-02-26T16:39:58.180Z,101090.83
2019-02-26T16:45:03.547Z,101075.91
2019-02-26T16:50:13.224Z,101073.87
2019-02-26T16:55:17.880Z,101075.99
2019-02-26T17:00:24.422Z,101075.83
2019-02-26T17:05:30.057Z,101079.55
2019-02-26T17:10:35.781Z,101072.25
2019-02-26T17:15:41.155Z,101071.55
2019-02-26T17:20:46.851Z,101075.41
2019-02-26T17:25:52.340Z,101080.08
2019-02-26T17:30:58.338Z,101072.75
2019-02-26T17:36:03.960Z,101073.02
2019-02-26T17:41:09.978Z,101066.58
2019-02-26T17:46:16.378Z,101065.03
2019-02-26T17:51:21.710Z,101067.86
2019-02-26T17:56:28.797Z,101058.22
2019-02-26T18:01:34.097Z,101069.92
2019-02-26T18:06:39.535Z,101072.28
2019-02-26T18:11:44.909Z,101067.15
2019-02-26T18:16:50.238Z,101077.02
2019-02-26T18:21:55.536Z,101091.83
2019-02-26T18:27:01.117Z,101097.25
2019-02-26T18:32:06.417Z,101107.55
2019-02-26T18:37:12.057Z,101119.09
2019-02-26T18:42:17.316Z,101113.80
2019-02-26T18:47:23.417Z,101116.51
2019-02-26T18:52:28.656Z,101120.94
2019-02-26T18:57:36.856Z,101123.17
2019-02-26T19:02:42.287Z,101129.93
2019-02-26T19:07:50.658Z,101124.63
2019-02-26T19:12:55.957Z,101128.19
2019-02-26T19:18:02.660Z,101120.66
2019-02-26T19:23:08.478Z,101114.50
2019-02-26T19:28:13.816Z,101114.97
2019-02-26T19:33:21.782Z,101111.91
2019-02-26T19:38:27.661Z,101111.47
2019-02-26T19:43:33.543Z,101116.38
2019-02-26T19:48:39.258Z,101118.91
2019-02-26T19:53:44.639Z,101121.56
2019-02-26T19:58:50.030Z,101120.79
2019-02-26T20:03:55.559Z,101128.90
2019-02-26T20:09:01.073Z,101120.90
2019-02-26T20:14:06.416Z,101122.73
2019-02-26T20:19:11.817Z,101118.47
2019-02-26T20:24:18.058Z,101116.25
2019-02-26T20:29:23.577Z,101108.22
2019-02-26T20:34:28.995Z,101105.95
2019-02-26T20:39:34.657Z,101100.65
2019-02-26T20:44:42.819Z,101089.25
2019-02-26T20:49:47.076Z,101095.92
2019-02-26T20:54:52.337Z,101088.36
2019-02-26T20:59:57.636Z,101095.39
2019-02-26T21:05:02.918Z,101089.22
2019-02-26T21:10:08.937Z,101086.56
2019-02-26T21:15:16.280Z,101081.69
2019-02-26T21:20:21.619Z,101084.34
2019-02-26T21:25:27.114Z,101087.84
2019-02-26T21:30:32.449Z,101086.00
2019-02-26T21:35:37.894Z,101082.91
2019-02-26T21:40:43.319Z,101085.95
2019-02-26T21:45:49.360Z,101082.44
2019-02-26T21:50:55.404Z,101072.30
2019-02-26T21:56:00.838Z,101067.63
2019-02-26T22:01:06.237Z,101067.63
2019-02-26T22:06:11.660Z,101058.34
2019-02-26T22:11:18.442Z,101057.88
2019-02-26T22:16:24.038Z,101045.52
2019-02-26T22:21:31.350Z,101053.44
2019-02-26T22:26:36.749Z,101061.35
2019-02-26T22:31:42.077Z,101059.59
2019-02-26T22:36:47.573Z,101061.93
2019-02-26T22:41:53.026Z,101055.30
2019-02-26T22:46:59.162Z,101059.24
2019-02-26T22:52:04.677Z,101064.91
2019-02-26T22:57:10.018Z,101065.34
2019-02-26T23:02:15.516Z,101060.50
2019-02-26T23:07:20.988Z,101056.59
2019-02-26T23:12:26.642Z,101048.63
2019-02-26T23:17:32.017Z,101044.28
2019-02-26T23:22:38.497Z,101031.55
2019-02-26T23:27:46.099Z,101024.48
2019-02-26T23:32:50.997Z,101011.24
2019-02-26T23:37:57.276Z,101015.64
2019-02-26T23:43:02.537Z,101009.88
2019-02-26T23:48:08.641Z,101008.52
2019-02-26T23:53:14.194Z,101002.75
2019-02-26T23:58:19.602Z,101003.16
